sensor_id;sensor_type;location;lat;lon;timestamp;P1;durP1;ratioP1;P2;durP2;ratioP2
38132;SDS011;23948;43.252;26.572;2022-10-16T07:48:30;17.23;;;5.88;;
38132;SDS011;23948;43.252;26.572;2022-10-16T11:16:21;6.88;;;3.65;;
38132;SDS011;23948;43.252;26.572;2022-10-16T11:21:14;11.80;;;4.05;;
38132;SDS011;23948;43.252;26.572;2022-10-16T11:23:53;7.43;;;3.63;;
38132;SDS011;23948;43.252;26.572;2022-10-16T11:26:21;8.50;;;3.87;;
38132;SDS011;23948;43.252;26.572;2022-10-16T11:28:49;6.47;;;3.28;;
38132;SDS011;23948;43.252;26.572;2022-10-16T11:31:32;10.05;;;3.50;;
38132;SDS011;23948;43.252;26.572;2022-10-16T11:41:29;7.18;;;3.70;;
38132;SDS011;23948;43.252;26.572;2022-10-16T11:46:23;6.47;;;3.73;;
38132;SDS011;23948;43.252;26.572;2022-10-16T11:48:57;6.88;;;3.00;;
38132;SDS011;23948;43.252;26.572;2022-10-16T11:53:59;5.65;;;3.10;;
38132;SDS011;23948;43.252;26.572;2022-10-16T11:56:26;7.63;;;3.25;;
38132;SDS011;23948;43.252;26.572;2022-10-16T12:01:19;7.95;;;3.20;;
38132;SDS011;23948;43.252;26.572;2022-10-16T12:06:39;7.97;;;3.50;;
38132;SDS011;23948;43.252;26.572;2022-10-16T12:09:05;5.82;;;3.42;;
38132;SDS011;23948;43.252;26.572;2022-10-16T12:11:37;7.05;;;3.60;;
38132;SDS011;23948;43.252;26.572;2022-10-16T12:16:37;8.98;;;3.72;;
38132;SDS011;23948;43.252;26.572;2022-10-16T12:19:13;8.15;;;3.53;;
38132;SDS011;23948;43.252;26.572;2022-10-16T12:21:39;9.07;;;5.38;;
38132;SDS011;23948;43.252;26.572;2022-10-16T12:24:04;7.18;;;3.47;;
38132;SDS011;23948;43.252;26.572;2022-10-16T12:26:33;9.00;;;4.43;;
38132;SDS011;23948;43.252;26.572;2022-10-16T12:31:37;12.35;;;4.63;;
38132;SDS011;23948;43.252;26.572;2022-10-16T12:34:04;8.07;;;4.13;;
38132;SDS011;23948;43.252;26.572;2022-10-16T12:36:30;8.13;;;4.30;;
38132;SDS011;23948;43.252;26.572;2022-10-16T12:38:57;8.57;;;4.05;;
38132;SDS011;23948;43.252;26.572;2022-10-16T12:41:30;6.53;;;4.70;;
38132;SDS011;23948;43.252;26.572;2022-10-16T12:43:55;11.00;;;4.93;;
38132;SDS011;23948;43.252;26.572;2022-10-16T12:46:33;6.88;;;3.50;;
38132;SDS011;23948;43.252;26.572;2022-10-16T12:51:37;10.20;;;3.45;;
38132;SDS011;23948;43.252;26.572;2022-10-16T13:01:50;6.63;;;3.50;;
38132;SDS011;23948;43.252;26.572;2022-10-16T13:06:49;12.50;;;4.30;;
38132;SDS011;23948;43.252;26.572;2022-10-16T13:09:22;11.45;;;4.07;;
38132;SDS011;23948;43.252;26.572;2022-10-16T13:22:21;10.48;;;4.20;;
38132;SDS011;23948;43.252;26.572;2022-10-16T13:27:37;8.95;;;3.78;;
38132;SDS011;23948;43.252;26.572;2022-10-16T13:30:18;7.20;;;3.67;;
38132;SDS011;23948;43.252;26.572;2022-10-16T13:32:48;10.10;;;4.00;;
38132;SDS011;23948;43.252;26.572;2022-10-16T13:35:25;15.13;;;3.45;;
38132;SDS011;23948;43.252;26.572;2022-10-16T13:37:50;6.45;;;3.35;;
38132;SDS011;23948;43.252;26.572;2022-10-16T13:42:44;6.65;;;3.53;;
38132;SDS011;23948;43.252;26.572;2022-10-16T13:45:23;7.70;;;3.33;;
38132;SDS011;23948;43.252;26.572;2022-10-16T13:47:50;12.00;;;3.85;;
38132;SDS011;23948;43.252;26.572;2022-10-16T13:50:25;9.05;;;3.65;;
38132;SDS011;23948;43.252;26.572;2022-10-16T13:52:51;7.38;;;3.65;;
38132;SDS011;23948;43.252;26.572;2022-10-16T13:55:17;6.97;;;3.08;;
38132;SDS011;23948;43.252;26.572;2022-10-16T13:57:43;7.25;;;3.67;;
38132;SDS011;23948;43.252;26.572;2022-10-16T14:00:22;7.43;;;3.30;;
38132;SDS011;23948;43.252;26.572;2022-10-16T14:02:55;7.97;;;3.63;;
38132;SDS011;23948;43.252;26.572;2022-10-16T14:05:22;9.00;;;4.20;;
38132;SDS011;23948;43.252;26.572;2022-10-16T14:07:48;8.23;;;4.07;;
38132;SDS011;23948;43.252;26.572;2022-10-16T14:10:31;9.13;;;4.03;;
38132;SDS011;23948;43.252;26.572;2022-10-16T14:13:01;7.50;;;3.85;;
38132;SDS011;23948;43.252;26.572;2022-10-16T14:15:27;7.63;;;3.97;;
38132;SDS011;23948;43.252;26.572;2022-10-16T14:17:52;7.15;;;3.72;;
38132;SDS011;23948;43.252;26.572;2022-10-16T14:20:18;7.78;;;3.75;;
38132;SDS011;23948;43.252;26.572;2022-10-16T14:22:44;12.27;;;3.97;;
38132;SDS011;23948;43.252;26.572;2022-10-16T14:27:45;7.95;;;3.70;;
38132;SDS011;23948;43.252;26.572;2022-10-16T14:32:36;8.20;;;3.85;;
38132;SDS011;23948;43.252;26.572;2022-10-16T14:35:01;9.00;;;4.30;;
38132;SDS011;23948;43.252;26.572;2022-10-16T14:37:27;9.48;;;3.83;;
38132;SDS011;23948;43.252;26.572;2022-10-16T14:39:52;9.32;;;4.47;;
38132;SDS011;23948;43.252;26.572;2022-10-16T14:42:19;6.80;;;3.80;;
38132;SDS011;23948;43.252;26.572;2022-10-16T14:44:45;7.82;;;4.40;;
38132;SDS011;23948;43.252;26.572;2022-10-16T14:47:13;8.00;;;3.80;;
38132;SDS011;23948;43.252;26.572;2022-10-16T14:49:41;8.02;;;4.10;;
38132;SDS011;23948;43.252;26.572;2022-10-16T14:52:10;8.40;;;4.50;;
38132;SDS011;23948;43.252;26.572;2022-10-16T14:54:35;7.87;;;4.17;;
38132;SDS011;23948;43.252;26.572;2022-10-16T14:57:01;8.40;;;4.13;;
38132;SDS011;23948;43.252;26.572;2022-10-16T14:59:39;13.38;;;5.20;;
38132;SDS011;23948;43.252;26.572;2022-10-16T15:02:13;11.68;;;4.60;;
38132;SDS011;23948;43.252;26.572;2022-10-16T15:04:39;16.30;;;4.97;;
38132;SDS011;23948;43.252;26.572;2022-10-16T15:07:04;12.90;;;5.32;;
38132;SDS011;23948;43.252;26.572;2022-10-16T15:09:30;11.73;;;4.82;;
38132;SDS011;23948;43.252;26.572;2022-10-16T15:11:55;11.57;;;4.78;;
38132;SDS011;23948;43.252;26.572;2022-10-16T15:14:20;11.85;;;5.20;;
38132;SDS011;23948;43.252;26.572;2022-10-16T15:16:46;12.48;;;5.18;;
38132;SDS011;23948;43.252;26.572;2022-10-16T15:19:11;11.77;;;6.15;;
38132;SDS011;23948;43.252;26.572;2022-10-16T15:21:37;12.77;;;6.70;;
38132;SDS011;23948;43.252;26.572;2022-10-16T15:24:02;15.75;;;7.85;;
38132;SDS011;23948;43.252;26.572;2022-10-16T15:26:28;16.27;;;7.85;;
38132;SDS011;23948;43.252;26.572;2022-10-16T15:28:54;18.65;;;8.38;;
38132;SDS011;23948;43.252;26.572;2022-10-16T15:31:19;16.13;;;7.22;;
38132;SDS011;23948;43.252;26.572;2022-10-16T15:33:46;9.55;;;5.00;;
38132;SDS011;23948;43.252;26.572;2022-10-16T15:36:24;15.35;;;5.53;;
38132;SDS011;23948;43.252;26.572;2022-10-16T15:38:49;9.70;;;4.60;;
38132;SDS011;23948;43.252;26.572;2022-10-16T15:41:15;12.68;;;5.95;;
38132;SDS011;23948;43.252;26.572;2022-10-16T15:43:41;13.95;;;5.63;;
38132;SDS011;23948;43.252;26.572;2022-10-16T15:46:08;15.73;;;8.15;;
38132;SDS011;23948;43.252;26.572;2022-10-16T15:48:35;16.05;;;9.30;;
38132;SDS011;23948;43.252;26.572;2022-10-16T15:51:00;14.02;;;7.82;;
38132;SDS011;23948;43.252;26.572;2022-10-16T15:53:29;14.73;;;7.22;;
38132;SDS011;23948;43.252;26.572;2022-10-16T15:55:54;13.90;;;5.60;;
38132;SDS011;23948;43.252;26.572;2022-10-16T15:58:20;14.27;;;5.55;;
38132;SDS011;23948;43.252;26.572;2022-10-16T16:00:45;16.90;;;7.30;;
38132;SDS011;23948;43.252;26.572;2022-10-16T16:03:10;17.30;;;7.70;;
38132;SDS011;23948;43.252;26.572;2022-10-16T16:05:39;17.95;;;7.70;;
38132;SDS011;23948;43.252;26.572;2022-10-16T16:08:05;20.00;;;9.60;;
38132;SDS011;23948;43.252;26.572;2022-10-16T16:10:30;15.05;;;7.25;;
38132;SDS011;23948;43.252;26.572;2022-10-16T16:12:55;15.73;;;6.75;;
38132;SDS011;23948;43.252;26.572;2022-10-16T16:15:21;18.58;;;7.78;;
38132;SDS011;23948;43.252;26.572;2022-10-16T16:17:46;15.35;;;7.80;;
38132;SDS011;23948;43.252;26.572;2022-10-16T16:20:12;14.30;;;7.80;;
38132;SDS011;23948;43.252;26.572;2022-10-16T16:22:37;19.10;;;9.80;;
38132;SDS011;23948;43.252;26.572;2022-10-16T16:25:02;20.02;;;10.38;;
38132;SDS011;23948;43.252;26.572;2022-10-16T16:27:28;14.95;;;9.65;;
38132;SDS011;23948;43.252;26.572;2022-10-16T16:29:54;17.73;;;10.50;;
38132;SDS011;23948;43.252;26.572;2022-10-16T16:32:20;16.23;;;10.25;;
38132;SDS011;23948;43.252;26.572;2022-10-16T16:34:45;13.68;;;9.05;;
38132;SDS011;23948;43.252;26.572;2022-10-16T16:37:10;16.63;;;9.10;;
38132;SDS011;23948;43.252;26.572;2022-10-16T16:39:36;14.60;;;9.63;;
38132;SDS011;23948;43.252;26.572;2022-10-16T16:42:01;17.35;;;10.90;;
38132;SDS011;23948;43.252;26.572;2022-10-16T16:44:29;18.58;;;11.95;;
38132;SDS011;23948;43.252;26.572;2022-10-16T16:46:54;24.40;;;14.38;;
38132;SDS011;23948;43.252;26.572;2022-10-16T16:49:20;29.10;;;17.10;;
38132;SDS011;23948;43.252;26.572;2022-10-16T16:51:45;36.55;;;20.23;;
38132;SDS011;23948;43.252;26.572;2022-10-16T16:54:10;36.10;;;22.08;;
38132;SDS011;23948;43.252;26.572;2022-10-16T16:56:37;33.65;;;21.92;;
38132;SDS011;23948;43.252;26.572;2022-10-16T16:59:03;33.13;;;20.13;;
38132;SDS011;23948;43.252;26.572;2022-10-16T17:01:29;31.30;;;18.88;;
38132;SDS011;23948;43.252;26.572;2022-10-16T17:03:54;54.85;;;22.73;;
38132;SDS011;23948;43.252;26.572;2022-10-16T17:06:21;53.95;;;25.50;;
38132;SDS011;23948;43.252;26.572;2022-10-16T17:08:47;56.20;;;26.88;;
38132;SDS011;23948;43.252;26.572;2022-10-16T17:11:23;60.45;;;29.17;;
38132;SDS011;23948;43.252;26.572;2022-10-16T17:13:48;66.78;;;30.75;;
38132;SDS011;23948;43.252;26.572;2022-10-16T17:16:14;57.78;;;30.55;;
38132;SDS011;23948;43.252;26.572;2022-10-16T17:18:40;54.53;;;29.13;;
38132;SDS011;23948;43.252;26.572;2022-10-16T17:21:07;66.63;;;31.83;;
38132;SDS011;23948;43.252;26.572;2022-10-16T17:23:33;48.08;;;25.77;;
38132;SDS011;23948;43.252;26.572;2022-10-16T17:26:05;50.53;;;25.75;;
38132;SDS011;23948;43.252;26.572;2022-10-16T17:28:30;50.45;;;25.58;;
38132;SDS011;23948;43.252;26.572;2022-10-16T17:30:55;49.30;;;25.38;;
38132;SDS011;23948;43.252;26.572;2022-10-16T17:33:21;49.05;;;26.52;;
38132;SDS011;23948;43.252;26.572;2022-10-16T17:35:46;49.85;;;27.80;;
38132;SDS011;23948;43.252;26.572;2022-10-16T17:38:12;54.33;;;27.63;;
38132;SDS011;23948;43.252;26.572;2022-10-16T17:40:38;44.53;;;24.95;;
38132;SDS011;23948;43.252;26.572;2022-10-16T17:43:03;41.20;;;22.73;;
38132;SDS011;23948;43.252;26.572;2022-10-16T17:45:29;38.70;;;22.40;;
38132;SDS011;23948;43.252;26.572;2022-10-16T17:47:54;48.83;;;26.95;;
38132;SDS011;23948;43.252;26.572;2022-10-16T17:50:19;41.42;;;23.88;;
38132;SDS011;23948;43.252;26.572;2022-10-16T17:52:45;46.85;;;24.25;;
38132;SDS011;23948;43.252;26.572;2022-10-16T17:55:10;45.40;;;23.88;;
38132;SDS011;23948;43.252;26.572;2022-10-16T17:57:36;45.13;;;26.20;;
38132;SDS011;23948;43.252;26.572;2022-10-16T18:00:02;40.33;;;24.58;;
38132;SDS011;23948;43.252;26.572;2022-10-16T18:02:28;36.97;;;22.17;;
38132;SDS011;23948;43.252;26.572;2022-10-16T18:04:53;39.03;;;22.23;;
38132;SDS011;23948;43.252;26.572;2022-10-16T18:07:19;37.90;;;23.52;;
38132;SDS011;23948;43.252;26.572;2022-10-16T18:09:45;35.33;;;21.15;;
38132;SDS011;23948;43.252;26.572;2022-10-16T18:12:10;42.30;;;24.13;;
38132;SDS011;23948;43.252;26.572;2022-10-16T18:14:35;41.03;;;23.05;;
38132;SDS011;23948;43.252;26.572;2022-10-16T18:17:01;37.60;;;22.92;;
38132;SDS011;23948;43.252;26.572;2022-10-16T18:19:26;37.25;;;21.13;;
38132;SDS011;23948;43.252;26.572;2022-10-16T18:21:52;34.88;;;21.17;;
38132;SDS011;23948;43.252;26.572;2022-10-16T18:24:19;35.30;;;20.33;;
38132;SDS011;23948;43.252;26.572;2022-10-16T18:26:45;30.60;;;19.55;;
38132;SDS011;23948;43.252;26.572;2022-10-16T18:29:11;30.70;;;20.00;;
38132;SDS011;23948;43.252;26.572;2022-10-16T18:31:36;37.47;;;21.40;;
38132;SDS011;23948;43.252;26.572;2022-10-16T18:34:03;46.30;;;28.63;;
38132;SDS011;23948;43.252;26.572;2022-10-16T18:36:32;55.30;;;33.17;;
38132;SDS011;23948;43.252;26.572;2022-10-16T18:38:58;47.00;;;27.67;;
38132;SDS011;23948;43.252;26.572;2022-10-16T18:41:24;43.45;;;26.90;;
38132;SDS011;23948;43.252;26.572;2022-10-16T18:43:50;41.35;;;24.48;;
38132;SDS011;23948;43.252;26.572;2022-10-16T18:46:16;37.50;;;21.50;;
38132;SDS011;23948;43.252;26.572;2022-10-16T18:48:42;34.85;;;20.23;;
38132;SDS011;23948;43.252;26.572;2022-10-16T18:53:36;34.97;;;20.58;;
38132;SDS011;23948;43.252;26.572;2022-10-16T18:56:02;27.25;;;16.95;;
38132;SDS011;23948;43.252;26.572;2022-10-16T18:58:27;28.15;;;16.02;;
38132;SDS011;23948;43.252;26.572;2022-10-16T19:00:53;32.78;;;19.30;;
38132;SDS011;23948;43.252;26.572;2022-10-16T19:03:18;27.73;;;18.40;;
38132;SDS011;23948;43.252;26.572;2022-10-16T19:05:44;32.38;;;17.15;;
38132;SDS011;23948;43.252;26.572;2022-10-16T19:08:12;25.40;;;16.52;;
38132;SDS011;23948;43.252;26.572;2022-10-16T19:10:38;27.65;;;15.88;;
38132;SDS011;23948;43.252;26.572;2022-10-16T19:13:06;25.65;;;13.75;;
38132;SDS011;23948;43.252;26.572;2022-10-16T19:15:31;25.25;;;14.43;;
38132;SDS011;23948;43.252;26.572;2022-10-16T19:17:57;25.70;;;15.30;;
38132;SDS011;23948;43.252;26.572;2022-10-16T19:20:22;27.95;;;16.30;;
38132;SDS011;23948;43.252;26.572;2022-10-16T19:22:48;28.98;;;17.17;;
38132;SDS011;23948;43.252;26.572;2022-10-16T19:25:18;33.90;;;17.95;;
38132;SDS011;23948;43.252;26.572;2022-10-16T19:27:46;39.20;;;20.67;;
38132;SDS011;23948;43.252;26.572;2022-10-16T19:30:11;38.88;;;21.65;;
38132;SDS011;23948;43.252;26.572;2022-10-16T19:32:37;32.47;;;18.15;;
38132;SDS011;23948;43.252;26.572;2022-10-16T19:35:02;29.85;;;15.68;;
38132;SDS011;23948;43.252;26.572;2022-10-16T19:37:27;36.17;;;17.50;;
38132;SDS011;23948;43.252;26.572;2022-10-16T19:39:53;45.13;;;21.35;;
38132;SDS011;23948;43.252;26.572;2022-10-16T19:42:18;31.13;;;15.73;;
38132;SDS011;23948;43.252;26.572;2022-10-16T19:44:43;28.15;;;15.70;;
38132;SDS011;23948;43.252;26.572;2022-10-16T19:47:09;25.90;;;14.65;;
38132;SDS011;23948;43.252;26.572;2022-10-16T19:49:34;21.70;;;12.10;;
38132;SDS011;23948;43.252;26.572;2022-10-16T19:51:59;19.33;;;11.05;;
38132;SDS011;23948;43.252;26.572;2022-10-16T19:54:24;17.63;;;12.07;;
38132;SDS011;23948;43.252;26.572;2022-10-16T19:56:50;23.17;;;13.45;;
38132;SDS011;23948;43.252;26.572;2022-10-16T19:59:15;22.33;;;11.80;;
38132;SDS011;23948;43.252;26.572;2022-10-16T20:01:43;18.20;;;11.30;;
38132;SDS011;23948;43.252;26.572;2022-10-16T20:04:09;21.83;;;11.63;;
38132;SDS011;23948;43.252;26.572;2022-10-16T20:06:34;16.10;;;10.13;;
38132;SDS011;23948;43.252;26.572;2022-10-16T20:09:00;22.13;;;12.82;;
38132;SDS011;23948;43.252;26.572;2022-10-16T20:11:26;24.27;;;13.73;;
38132;SDS011;23948;43.252;26.572;2022-10-16T20:13:52;19.17;;;11.88;;
38132;SDS011;23948;43.252;26.572;2022-10-16T20:16:17;18.95;;;10.88;;
38132;SDS011;23948;43.252;26.572;2022-10-16T20:18:44;20.52;;;12.00;;
38132;SDS011;23948;43.252;26.572;2022-10-16T20:21:11;16.92;;;10.68;;
38132;SDS011;23948;43.252;26.572;2022-10-16T20:23:36;21.45;;;12.23;;
38132;SDS011;23948;43.252;26.572;2022-10-16T20:26:01;18.52;;;12.05;;
38132;SDS011;23948;43.252;26.572;2022-10-16T20:28:27;19.80;;;11.50;;
38132;SDS011;23948;43.252;26.572;2022-10-16T20:30:52;17.67;;;10.68;;
38132;SDS011;23948;43.252;26.572;2022-10-16T20:33:17;19.05;;;10.85;;
38132;SDS011;23948;43.252;26.572;2022-10-16T20:35:44;21.35;;;11.10;;
38132;SDS011;23948;43.252;26.572;2022-10-16T20:38:09;16.75;;;10.05;;
38132;SDS011;23948;43.252;26.572;2022-10-16T20:40:36;18.17;;;9.57;;
38132;SDS011;23948;43.252;26.572;2022-10-16T20:43:02;17.40;;;10.20;;
38132;SDS011;23948;43.252;26.572;2022-10-16T20:45:28;16.63;;;9.77;;
38132;SDS011;23948;43.252;26.572;2022-10-16T20:47:53;15.65;;;9.90;;
38132;SDS011;23948;43.252;26.572;2022-10-16T20:50:18;15.88;;;9.52;;
38132;SDS011;23948;43.252;26.572;2022-10-16T20:52:43;15.68;;;9.13;;
38132;SDS011;23948;43.252;26.572;2022-10-16T20:55:09;19.02;;;10.75;;
38132;SDS011;23948;43.252;26.572;2022-10-16T20:57:34;18.60;;;11.52;;
38132;SDS011;23948;43.252;26.572;2022-10-16T20:59:59;19.77;;;11.85;;
38132;SDS011;23948;43.252;26.572;2022-10-16T21:02:25;23.27;;;14.40;;
38132;SDS011;23948;43.252;26.572;2022-10-16T21:04:50;22.58;;;13.05;;
38132;SDS011;23948;43.252;26.572;2022-10-16T21:07:15;26.33;;;12.38;;
38132;SDS011;23948;43.252;26.572;2022-10-16T21:09:41;26.25;;;15.25;;
38132;SDS011;23948;43.252;26.572;2022-10-16T21:12:07;22.42;;;15.00;;
38132;SDS011;23948;43.252;26.572;2022-10-16T21:14:32;27.33;;;16.17;;
38132;SDS011;23948;43.252;26.572;2022-10-16T21:16:57;29.88;;;16.45;;
38132;SDS011;23948;43.252;26.572;2022-10-16T21:19:24;23.92;;;15.13;;
38132;SDS011;23948;43.252;26.572;2022-10-16T21:21:50;23.52;;;14.55;;
38132;SDS011;23948;43.252;26.572;2022-10-16T21:24:15;17.08;;;11.82;;
38132;SDS011;23948;43.252;26.572;2022-10-16T21:26:41;17.33;;;10.38;;
38132;SDS011;23948;43.252;26.572;2022-10-16T21:29:07;17.13;;;9.57;;
38132;SDS011;23948;43.252;26.572;2022-10-16T21:31:32;20.55;;;11.77;;
38132;SDS011;23948;43.252;26.572;2022-10-16T21:33:58;15.88;;;9.85;;
38132;SDS011;23948;43.252;26.572;2022-10-16T21:36:25;18.77;;;10.45;;
38132;SDS011;23948;43.252;26.572;2022-10-16T21:38:50;13.77;;;9.45;;
38132;SDS011;23948;43.252;26.572;2022-10-16T21:43:44;14.73;;;8.63;;
38132;SDS011;23948;43.252;26.572;2022-10-16T21:46:10;17.17;;;9.07;;
38132;SDS011;23948;43.252;26.572;2022-10-16T21:48:35;13.90;;;8.45;;
38132;SDS011;23948;43.252;26.572;2022-10-16T21:51:00;12.15;;;7.70;;
38132;SDS011;23948;43.252;26.572;2022-10-16T21:53:26;10.40;;;6.68;;
38132;SDS011;23948;43.252;26.572;2022-10-16T21:55:51;14.93;;;7.57;;
38132;SDS011;23948;43.252;26.572;2022-10-16T21:58:16;13.48;;;7.57;;
38132;SDS011;23948;43.252;26.572;2022-10-16T22:00:42;17.00;;;8.95;;
38132;SDS011;23948;43.252;26.572;2022-10-16T22:03:07;15.23;;;8.98;;
38132;SDS011;23948;43.252;26.572;2022-10-16T22:05:32;22.05;;;11.57;;
38132;SDS011;23948;43.252;26.572;2022-10-16T22:07:58;18.73;;;10.73;;
38132;SDS011;23948;43.252;26.572;2022-10-16T22:10:23;19.77;;;11.13;;
38132;SDS011;23948;43.252;26.572;2022-10-16T22:12:48;20.60;;;11.35;;
38132;SDS011;23948;43.252;26.572;2022-10-16T22:15:14;16.65;;;10.25;;
38132;SDS011;23948;43.252;26.572;2022-10-16T22:17:39;17.50;;;9.25;;
38132;SDS011;23948;43.252;26.572;2022-10-16T22:20:04;16.90;;;9.57;;
38132;SDS011;23948;43.252;26.572;2022-10-16T22:22:30;19.08;;;9.05;;
38132;SDS011;23948;43.252;26.572;2022-10-16T22:24:55;15.27;;;8.15;;
38132;SDS011;23948;43.252;26.572;2022-10-16T22:27:20;11.98;;;7.53;;
38132;SDS011;23948;43.252;26.572;2022-10-16T22:29:49;14.80;;;8.05;;
38132;SDS011;23948;43.252;26.572;2022-10-16T22:32:14;12.82;;;8.15;;
38132;SDS011;23948;43.252;26.572;2022-10-16T22:34:39;13.50;;;7.80;;
38132;SDS011;23948;43.252;26.572;2022-10-16T22:37:04;13.57;;;8.30;;
38132;SDS011;23948;43.252;26.572;2022-10-16T22:39:30;14.52;;;7.10;;
38132;SDS011;23948;43.252;26.572;2022-10-16T22:41:55;13.20;;;7.80;;
38132;SDS011;23948;43.252;26.572;2022-10-16T22:44:20;12.00;;;6.88;;
38132;SDS011;23948;43.252;26.572;2022-10-16T22:46:45;13.23;;;7.43;;
38132;SDS011;23948;43.252;26.572;2022-10-16T22:49:11;10.75;;;6.55;;
38132;SDS011;23948;43.252;26.572;2022-10-16T22:51:36;19.10;;;6.63;;
38132;SDS011;23948;43.252;26.572;2022-10-16T22:54:02;11.75;;;6.43;;
38132;SDS011;23948;43.252;26.572;2022-10-16T22:56:27;12.05;;;6.65;;
38132;SDS011;23948;43.252;26.572;2022-10-16T22:58:52;11.02;;;6.38;;
38132;SDS011;23948;43.252;26.572;2022-10-16T23:01:26;11.23;;;6.22;;
38132;SDS011;23948;43.252;26.572;2022-10-16T23:03:51;12.20;;;6.43;;
38132;SDS011;23948;43.252;26.572;2022-10-16T23:06:16;14.18;;;6.60;;
38132;SDS011;23948;43.252;26.572;2022-10-16T23:08:42;10.85;;;6.25;;
38132;SDS011;23948;43.252;26.572;2022-10-16T23:11:08;12.43;;;7.65;;
38132;SDS011;23948;43.252;26.572;2022-10-16T23:13:40;12.38;;;7.45;;
38132;SDS011;23948;43.252;26.572;2022-10-16T23:16:09;16.63;;;7.78;;
38132;SDS011;23948;43.252;26.572;2022-10-16T23:18:36;14.98;;;8.82;;
38132;SDS011;23948;43.252;26.572;2022-10-16T23:21:08;14.35;;;8.43;;
38132;SDS011;23948;43.252;26.572;2022-10-16T23:23:35;12.32;;;7.78;;
38132;SDS011;23948;43.252;26.572;2022-10-16T23:26:00;13.60;;;7.65;;
38132;SDS011;23948;43.252;26.572;2022-10-16T23:28:25;12.05;;;7.70;;
38132;SDS011;23948;43.252;26.572;2022-10-16T23:30:51;12.25;;;7.25;;
38132;SDS011;23948;43.252;26.572;2022-10-16T23:33:16;12.00;;;7.07;;
38132;SDS011;23948;43.252;26.572;2022-10-16T23:35:41;12.23;;;7.00;;
38132;SDS011;23948;43.252;26.572;2022-10-16T23:38:07;12.85;;;7.43;;
38132;SDS011;23948;43.252;26.572;2022-10-16T23:40:32;12.23;;;6.45;;
38132;SDS011;23948;43.252;26.572;2022-10-16T23:42:57;12.30;;;6.78;;
38132;SDS011;23948;43.252;26.572;2022-10-16T23:45:23;14.30;;;7.20;;
38132;SDS011;23948;43.252;26.572;2022-10-16T23:47:48;10.95;;;6.97;;
38132;SDS011;23948;43.252;26.572;2022-10-16T23:50:13;11.75;;;6.65;;
38132;SDS011;23948;43.252;26.572;2022-10-16T23:52:38;10.38;;;6.38;;
38132;SDS011;23948;43.252;26.572;2022-10-16T23:55:04;10.10;;;6.55;;
38132;SDS011;23948;43.252;26.572;2022-10-16T23:57:29;12.75;;;6.55;;
38132;SDS011;23948;43.252;26.572;2022-10-16T23:59:54;13.15;;;6.60;;
